Time;durP1;ratioP1;P1;durP2;ratioP2;P2;SDS_P1;SDS_P2;PMS_P1;PMS_P2;Temp;Humidity;BMP_temperature;BMP_pressure;BME280_temperature;BME280_humidity;BME280_pressure;Samples;Min_cycle;Max_cycle;Signal;HPM_P1;HPM_P2
2021/06/02 00:05:47;;;;;;;7.57;6.97;;;17.00;91.40;;;;;;5055632;28;20407;-83
2021/06/02 00:08:16;;;;;;;8.30;7.40;;;17.00;91.30;;;;;;5054829;28;20753;-83
2021/06/02 00:10:42;;;;;;;9.47;8.57;;;17.00;91.60;;;;;;5055506;28;20449;-83
2021/06/02 00:13:08;;;;;;;7.47;6.87;;;16.90;91.50;;;;;;5054885;28;20186;-83
2021/06/02 00:15:34;;;;;;;10.40;9.70;;;16.90;91.60;;;;;;5055234;28;20416;-82
2021/06/02 00:18:00;;;;;;;7.73;7.00;;;16.90;91.90;;;;;;5054860;28;20454;-83
2021/06/02 00:20:27;;;;;;;8.30;7.67;;;16.90;92.30;;;;;;5055356;28;20181;-83
2021/06/02 00:22:53;;;;;;;8.47;7.87;;;16.80;92.60;;;;;;5055397;28;20423;-83
2021/06/02 00:25:19;;;;;;;7.87;7.13;;;16.80;92.70;;;;;;5036778;28;20507;-83
2021/06/02 00:27:45;;;;;;;9.23;8.47;;;16.80;92.80;;;;;;5055233;28;20507;-83
2021/06/02 00:30:11;;;;;;;9.77;8.87;;;16.80;92.70;;;;;;5054629;28;20504;-83
2021/06/02 00:32:39;;;;;;;7.77;7.07;;;16.70;92.40;;;;;;5055257;28;20499;-83
2021/06/02 00:35:06;;;;;;;8.03;7.33;;;16.80;93.10;;;;;;5054445;28;20437;-83
2021/06/02 00:37:34;;;;;;;11.97;10.90;;;16.70;93.10;;;;;;5054964;28;20491;-83
2021/06/02 00:40:00;;;;;;;9.40;8.60;;;16.70;93.10;;;;;;5036549;28;20411;-83
2021/06/02 00:42:31;;;;;;;11.17;9.83;;;16.60;93.30;;;;;;5054937;28;20505;-83
2021/06/02 00:44:57;;;;;;;8.80;8.10;;;16.60;93.20;;;;;;5055093;28;20411;-83
2021/06/02 00:47:23;;;;;;;8.70;7.87;;;16.60;93.10;;;;;;5054272;28;20500;-82
2021/06/02 00:49:50;;;;;;;9.20;8.33;;;16.50;92.50;;;;;;5054814;28;20404;-83
2021/06/02 00:52:16;;;;;;;8.00;7.30;;;16.50;92.70;;;;;;5053981;28;20413;-82
2021/06/02 00:54:42;;;;;;;7.80;7.10;;;16.60;93.00;;;;;;5054750;28;20748;-83
2021/06/02 00:57:10;;;;;;;7.97;7.17;;;16.50;93.20;;;;;;5054077;28;20417;-83
2021/06/02 00:59:47;;;;;;;8.17;7.47;;;16.50;93.20;;;;;;5054666;28;20603;-83
2021/06/02 01:02:18;;;;;;;7.33;6.70;;;16.50;93.00;;;;;;5053428;28;20490;-83
2021/06/02 01:04:47;;;;;;;7.37;6.73;;;16.50;93.30;;;;;;5054145;28;20412;-83
2021/06/02 01:07:13;;;;;;;7.40;6.90;;;16.50;93.70;;;;;;5053585;28;20412;-83
2021/06/02 01:09:48;;;;;;;8.20;7.60;;;16.50;93.70;;;;;;5054486;28;20406;-82
2021/06/02 01:12:18;;;;;;;7.90;7.30;;;16.50;94.00;;;;;;5053936;28;20561;-83
2021/06/02 01:14:45;;;;;;;7.87;7.23;;;16.50;94.10;;;;;;5036570;28;20422;-83
2021/06/02 01:17:16;;;;;;;7.77;7.17;;;16.50;93.80;;;;;;5053329;28;20542;-83
2021/06/02 01:19:43;;;;;;;8.00;7.17;;;16.50;92.90;;;;;;5054327;28;20419;-83
2021/06/02 01:22:09;;;;;;;7.73;7.13;;;16.50;93.00;;;;;;5053417;28;20451;-83
2021/06/02 01:24:35;;;;;;;7.90;7.00;;;16.50;93.30;;;;;;5054680;28;20407;-83
2021/06/02 01:27:05;;;;;;;7.53;6.87;;;16.50;93.70;;;;;;5035782;28;20473;-83
2021/06/02 01:29:33;;;;;;;10.83;8.63;;;16.50;93.70;;;;;;5054166;28;20452;-83
2021/06/02 01:32:36;;;;;;;10.03;7.73;;;16.50;93.90;;;;;;5036251;28;20422;-83
2021/06/02 01:35:11;;;;;;;9.73;9.13;;;16.50;93.90;;;;;;5053352;28;20416;-83
2021/06/02 01:38:01;;;;;;;8.40;7.80;;;16.50;93.30;;;;;;5053502;28;20984;-83
2021/06/02 01:41:04;;;;;;;8.23;7.60;;;16.50;93.20;;;;;;5053731;28;20770;-83
2021/06/02 01:43:48;;;;;;;8.53;7.53;;;16.50;93.10;;;;;;5053866;28;20415;-83
2021/06/02 01:46:40;;;;;;;14.87;8.53;;;16.40;93.30;;;;;;5052022;28;20426;-83
2021/06/02 01:49:15;;;;;;;8.50;7.80;;;16.40;93.10;;;;;;5052870;28;20402;-83
2021/06/02 01:52:08;;;;;;;8.30;7.60;;;16.40;93.40;;;;;;5052660;28;20413;-83
2021/06/02 01:55:08;;;;;;;7.83;7.10;;;16.50;93.70;;;;;;5052467;28;20404;-83
2021/06/02 01:57:57;;;;;;;8.07;7.27;;;16.40;93.80;;;;;;5052380;28;20451;-83
2021/06/02 02:00:47;;;;;;;8.80;8.10;;;16.40;93.50;;;;;;5053033;28;20491;-83
2021/06/02 02:03:31;;;;;;;9.07;6.93;;;16.40;93.80;;;;;;5051756;28;20411;-83
2021/06/02 02:06:16;;;;;;;10.47;6.80;;;16.40;93.90;;;;;;5051968;28;20406;-83
2021/06/02 02:08:43;;;;;;;9.73;9.03;;;16.30;93.70;;;;;;5053233;28;20426;-83
2021/06/02 02:11:18;;;;;;;7.37;6.77;;;16.30;93.90;;;;;;5050974;28;20426;-83
2021/06/02 02:14:16;;;;;;;8.30;7.50;;;16.30;93.60;;;;;;5052941;28;20462;-83
2021/06/02 02:17:00;;;;;;;7.73;7.10;;;16.30;93.90;;;;;;5047611;28;20505;-83
2021/06/02 02:19:47;;;;;;;7.57;6.97;;;16.30;94.20;;;;;;5052579;28;20535;-83
2021/06/02 02:22:25;;;;;;;8.10;7.60;;;16.20;94.10;;;;;;5051104;28;20783;-83
2021/06/02 02:25:00;;;;;;;7.93;7.30;;;16.20;94.20;;;;;;5052994;28;20418;-82
2021/06/02 02:27:31;;;;;;;10.03;9.23;;;16.20;94.00;;;;;;5052235;28;20800;-83
2021/06/02 02:30:06;;;;;;;8.80;8.00;;;16.20;92.90;;;;;;5035264;28;20401;-82
2021/06/02 02:33:07;;;;;;;9.10;8.30;;;16.20;93.20;;;;;;5053080;28;20414;-83
2021/06/02 02:35:45;;;;;;;8.43;7.70;;;16.10;93.20;;;;;;4991650;28;20938;-83
2021/06/02 02:38:31;;;;;;;9.50;8.70;;;16.20;93.30;;;;;;5051041;28;20454;-83
2021/06/02 02:41:24;;;;;;;8.03;7.43;;;16.10;93.10;;;;;;5052902;28;20422;-83
2021/06/02 02:43:57;;;;;;;10.00;9.23;;;16.10;93.10;;;;;;5052787;28;20438;-83
2021/06/02 02:46:37;;;;;;;7.50;6.90;;;16.00;92.50;;;;;;5052061;28;20844;-83
2021/06/02 02:49:24;;;;;;;9.40;8.60;;;16.10;92.70;;;;;;5052931;28;20407;-83
2021/06/02 02:52:14;;;;;;;8.73;7.93;;;16.00;93.10;;;;;;5052612;28;20494;-83
2021/06/02 02:54:57;;;;;;;9.67;8.87;;;16.00;93.20;;;;;;5052721;28;20800;-83
2021/06/02 02:58:36;;;;;;;8.67;7.90;;;15.90;93.10;;;;;;5051696;28;20398;-83
2021/06/02 03:01:10;;;;;;;9.20;8.40;;;15.90;93.10;;;;;;4973332;28;20455;-82
2021/06/02 03:04:06;;;;;;;8.37;7.40;;;15.70;93.10;;;;;;5017443;28;20795;-83
2021/06/02 03:06:40;;;;;;;9.50;8.60;;;15.60;93.60;;;;;;5052507;28;20432;-83
2021/06/02 03:09:29;;;;;;;9.03;8.30;;;15.60;93.90;;;;;;5034860;28;20452;-83
2021/06/02 03:12:16;;;;;;;8.70;7.90;;;15.50;94.20;;;;;;5034299;28;20426;-83
2021/06/02 03:14:53;;;;;;;8.50;7.80;;;15.50;94.20;;;;;;5052497;28;20402;-82
2021/06/02 03:17:29;;;;;;;8.87;8.07;;;15.50;94.40;;;;;;5033755;28;20471;-83
2021/06/02 03:20:07;;;;;;;8.93;8.23;;;15.50;94.40;;;;;;5052436;28;20398;-83
2021/06/02 03:22:51;;;;;;;9.10;8.30;;;15.60;94.80;;;;;;5034377;28;20894;-83
2021/06/02 03:26:07;;;;;;;10.47;9.60;;;15.50;94.90;;;;;;5050535;28;20537;-83
2021/06/02 03:28:49;;;;;;;8.50;7.80;;;15.50;94.50;;;;;;5012433;28;20452;-83
2021/06/02 03:31:31;;;;;;;8.83;8.23;;;15.50;94.80;;;;;;5055798;28;20404;-83
2021/06/02 03:34:21;;;;;;;9.03;8.13;;;15.50;95.20;;;;;;5056360;28;20412;-83
2021/06/02 03:37:14;;;;;;;8.83;8.03;;;15.50;95.30;;;;;;5056643;28;20878;-82
2021/06/02 03:40:21;;;;;;;10.60;9.90;;;15.50;95.40;;;;;;5056066;28;20467;-83
2021/06/02 03:42:54;;;;;;;8.77;8.17;;;15.50;95.30;;;;;;4975025;28;20441;-82
2021/06/02 03:45:37;;;;;;;9.17;8.27;;;15.50;95.20;;;;;;5029708;28;20789;-83
2021/06/02 03:48:05;;;;;;;9.43;8.63;;;15.50;95.40;;;;;;5056179;28;20828;-83
2021/06/02 03:50:55;;;;;;;10.07;9.13;;;15.50;95.60;;;;;;5055076;28;20413;-83
2021/06/02 03:53:35;;;;;;;9.03;8.23;;;15.50;95.50;;;;;;5021075;28;20427;-83
2021/06/02 03:56:19;;;;;;;10.03;9.13;;;15.60;95.40;;;;;;5054755;28;20479;-83
2021/06/02 03:59:12;;;;;;;9.10;8.30;;;15.60;95.30;;;;;;5054907;28;20455;-83
2021/06/02 04:01:47;;;;;;;9.23;8.43;;;15.60;95.30;;;;;;5055857;28;20403;-83
2021/06/02 04:04:32;;;;;;;10.63;9.67;;;15.60;95.10;;;;;;5055080;28;20936;-83
2021/06/02 04:07:11;;;;;;;9.73;8.93;;;15.60;95.50;;;;;;5055728;28;20444;-83
2021/06/02 04:09:54;;;;;;;8.97;8.27;;;15.60;95.70;;;;;;5055621;28;20405;-83
2021/06/02 04:12:39;;;;;;;11.60;10.80;;;15.60;95.80;;;;;;5055036;28;20452;-83
2021/06/02 04:15:07;;;;;;;9.87;8.93;;;15.60;95.90;;;;;;5055706;28;20393;-83
2021/06/02 04:17:33;;;;;;;10.07;9.27;;;15.60;95.90;;;;;;5054425;28;20473;-83
2021/06/02 04:20:03;;;;;;;11.83;10.90;;;15.60;95.80;;;;;;5055456;28;20438;-83
2021/06/02 04:22:32;;;;;;;10.13;9.10;;;15.50;95.80;;;;;;5054799;28;20415;-83
2021/06/02 04:25:01;;;;;;;10.93;10.10;;;15.50;95.90;;;;;;5055387;28;20508;-83
2021/06/02 04:27:28;;;;;;;11.50;10.60;;;15.50;96.10;;;;;;5054667;28;20495;-83
2021/06/02 04:30:03;;;;;;;9.47;8.57;;;15.50;96.30;;;;;;5055249;28;20415;-83
2021/06/02 04:32:38;;;;;;;9.77;8.77;;;15.50;96.30;;;;;;5054337;28;20402;-83
2021/06/02 04:35:09;;;;;;;10.43;9.43;;;15.50;96.20;;;;;;5055241;28;20432;-83
2021/06/02 04:37:36;;;;;;;9.83;8.93;;;15.50;96.40;;;;;;5054282;28;20481;-83
2021/06/02 04:40:07;;;;;;;11.57;8.40;;;15.50;96.00;;;;;;5054776;28;20416;-83
2021/06/02 04:42:37;;;;;;;10.87;9.33;;;15.40;96.20;;;;;;5054410;28;21416;-83
2021/06/02 04:45:16;;;;;;;10.37;9.00;;;15.40;96.70;;;;;;5054660;28;20398;-83
2021/06/02 04:47:45;;;;;;;10.07;9.00;;;15.50;96.90;;;;;;5055078;28;20497;-83
2021/06/02 04:50:19;;;;;;;13.80;12.60;;;15.50;97.00;;;;;;5054983;28;20420;-83
2021/06/02 04:53:15;;;;;;;15.50;11.83;;;15.50;96.90;;;;;;5054512;28;20435;-83
2021/06/02 04:55:53;;;;;;;11.67;10.53;;;15.50;97.00;;;;;;5037260;28;20416;-82
2021/06/02 04:58:37;;;;;;;13.80;12.40;;;15.50;97.00;;;;;;5054130;28;20436;-83
2021/06/02 05:01:21;;;;;;;11.87;10.13;;;15.40;96.20;;;;;;5054547;28;20400;-83
2021/06/02 05:03:50;;;;;;;11.70;10.50;;;15.40;95.80;;;;;;5054547;28;20403;-83
2021/06/02 05:06:35;;;;;;;13.30;11.20;;;15.40;95.90;;;;;;5054153;28;20433;-83
2021/06/02 05:09:22;;;;;;;11.37;10.30;;;15.40;96.00;;;;;;5054769;28;20753;-83
2021/06/02 05:12:27;;;;;;;13.00;11.70;;;15.40;95.60;;;;;;5036730;28;20748;-83
2021/06/02 05:15:27;;;;;;;14.43;11.97;;;15.50;95.40;;;;;;5036683;28;20738;-83
2021/06/02 05:18:17;;;;;;;13.13;11.90;;;15.50;95.50;;;;;;5054383;28;20449;-82
2021/06/02 05:24:01;;;;;;;11.93;10.07;;;15.50;95.00;;;;;;5054556;28;20413;-83
2021/06/02 05:27:13;;;;;;;11.87;10.80;;;15.50;95.10;;;;;;5053953;28;20418;-83
2021/06/02 05:30:10;;;;;;;10.83;9.53;;;15.50;95.30;;;;;;5053854;28;20887;-83
2021/06/02 05:33:11;;;;;;;12.77;9.83;;;15.50;95.70;;;;;;5053398;28;20768;-83
2021/06/02 05:36:00;;;;;;;10.93;10.03;;;15.50;95.80;;;;;;5051860;28;20411;-83
2021/06/02 05:38:35;;;;;;;11.37;9.40;;;15.40;95.80;;;;;;5052839;28;20858;-83
2021/06/02 05:41:32;;;;;;;10.50;9.60;;;15.30;96.00;;;;;;5053328;28;20433;-83
2021/06/02 05:44:26;;;;;;;12.27;11.17;;;15.30;96.10;;;;;;5053767;28;20415;-84
2021/06/02 05:47:00;;;;;;;10.57;9.47;;;15.30;96.10;;;;;;5035634;28;20466;-85
2021/06/02 05:50:00;;;;;;;12.73;11.43;;;15.40;96.20;;;;;;5052484;28;20420;-88
2021/06/02 05:52:37;;;;;;;11.10;10.10;;;15.30;96.30;;;;;;5052907;28;20407;-88
2021/06/02 05:55:15;;;;;;;14.50;13.20;;;15.40;96.40;;;;;;5053636;28;20951;-87
2021/06/02 05:58:45;;;;;;;14.03;12.53;;;15.40;96.30;;;;;;5052774;28;20542;-87
2021/06/02 06:01:48;;;;;;;14.27;12.77;;;15.50;96.50;;;;;;4956509;28;20793;-88
2021/06/02 06:04:45;;;;;;;12.33;11.10;;;15.60;95.60;;;;;;5032130;28;20410;-87
2021/06/02 06:07:33;;;;;;;12.23;10.93;;;15.70;95.40;;;;;;5035954;28;20391;-87
2021/06/02 06:10:25;;;;;;;13.23;11.80;;;15.60;95.50;;;;;;5053746;28;21820;-86
2021/06/02 06:13:12;;;;;;;14.50;12.00;;;15.70;95.80;;;;;;4995410;28;20432;-87
2021/06/02 06:16:22;;;;;;;17.27;12.40;;;15.70;95.80;;;;;;5034949;28;20808;-89
2021/06/02 06:19:06;;;;;;;12.60;11.33;;;15.80;96.10;;;;;;5034694;28;20557;-85
2021/06/02 06:22:24;;;;;;;15.13;12.90;;;15.80;96.30;;;;;;5052600;28;20441;-85
2021/06/02 06:24:56;;;;;;;13.90;10.93;;;15.90;96.30;;;;;;5021693;28;20932;-86
2021/06/02 06:27:44;;;;;;;14.50;12.90;;;16.00;96.80;;;;;;5034770;28;20891;-86
2021/06/02 06:30:20;;;;;;;14.90;11.57;;;15.90;96.00;;;;;;5053035;28;20499;-86
2021/06/02 06:32:51;;;;;;;14.90;11.80;;;16.00;95.60;;;;;;5052711;28;20486;-85
2021/06/02 06:35:18;;;;;;;15.37;13.33;;;16.10;95.70;;;;;;5052762;28;20887;-87
2021/06/02 06:37:52;;;;;;;16.57;13.77;;;16.20;95.40;;;;;;5034780;28;20458;-85
2021/06/02 06:40:23;;;;;;;57.67;36.27;;;16.30;95.10;;;;;;5034827;28;20912;-87
2021/06/02 06:42:52;;;;;;;45.63;30.17;;;16.50;98.20;;;;;;5052929;28;20502;-84
2021/06/02 06:45:38;;;;;;;39.70;27.60;;;16.90;97.50;;;;;;5052755;28;20415;-84
2021/06/02 06:48:12;;;;;;;42.80;29.43;;;17.30;97.00;;;;;;5052598;28;20503;-84
2021/06/02 06:50:39;;;;;;;40.33;29.30;;;17.80;96.10;;;;;;5052114;28;20422;-84
2021/06/02 06:53:07;;;;;;;14.30;13.00;;;18.10;94.00;;;;;;5052573;28;20412;-85
2021/06/02 06:55:39;;;;;;;12.50;11.20;;;18.20;93.50;;;;;;5018827;28;20389;-85
2021/06/02 06:58:07;;;;;;;12.10;10.90;;;18.30;92.10;;;;;;5034814;28;20464;-84
2021/06/02 07:00:34;;;;;;;21.13;17.33;;;18.30;91.50;;;;;;5034384;28;20416;-87
2021/06/02 07:03:03;;;;;;;14.30;12.53;;;18.60;93.50;;;;;;5035791;28;20412;-83
2021/06/02 07:05:30;;;;;;;32.90;24.53;;;18.80;92.50;;;;;;5034116;28;20409;-85
2021/06/02 07:07:59;;;;;;;14.83;12.37;;;19.00;92.60;;;;;;5034323;28;20444;-84
2021/06/02 07:10:26;;;;;;;11.53;10.40;;;19.30;92.00;;;;;;5051928;28;20419;-84
2021/06/02 07:12:52;;;;;;;11.00;9.90;;;19.40;90.60;;;;;;5052456;28;20425;-84
2021/06/02 07:15:23;;;;;;;13.13;9.70;;;19.40;90.40;;;;;;5052334;28;20781;-83
2021/06/02 07:17:50;;;;;;;10.23;9.43;;;19.40;90.60;;;;;;5052531;28;20205;-83
2021/06/02 07:20:21;;;;;;;24.20;21.37;;;19.50;89.70;;;;;;5034733;28;20420;-84
2021/06/02 07:22:52;;;;;;;412.17;201.87;;;19.60;90.10;;;;;;5034775;28;20783;-83
2021/06/02 07:25:20;;;;;;;32.93;24.40;;;19.60;89.00;;;;;;5052530;28;20487;-84
2021/06/02 07:27:48;;;;;;;12.20;11.10;;;19.80;90.50;;;;;;5051357;28;20408;-82
2021/06/02 07:30:15;;;;;;;9.30;8.37;;;19.90;90.10;;;;;;5034208;28;20849;-81
2021/06/02 07:32:42;;;;;;;14.23;12.90;;;20.00;87.90;;;;;;5050769;28;20410;-81
2021/06/02 07:35:09;;;;;;;10.43;9.63;;;20.20;87.50;;;;;;5052236;28;20409;-80
2021/06/02 07:37:35;;;;;;;9.13;8.40;;;20.30;87.90;;;;;;5051458;28;20412;-82
2021/06/02 07:40:03;;;;;;;9.63;8.63;;;20.50;86.80;;;;;;5052320;28;20829;-81
2021/06/02 07:42:28;;;;;;;9.23;8.40;;;20.60;86.70;;;;;;5051693;28;20503;-81
2021/06/02 07:44:54;;;;;;;11.13;10.10;;;20.70;85.00;;;;;;5034233;28;20928;-82
2021/06/02 07:47:21;;;;;;;49.27;43.30;;;20.70;83.20;;;;;;5052539;28;20610;-81
2021/06/02 07:49:47;;;;;;;9.33;8.53;;;20.70;83.20;;;;;;5033763;28;20184;-81
2021/06/02 07:52:13;;;;;;;16.33;9.00;;;20.90;83.40;;;;;;5052405;28;20435;-81
2021/06/02 07:54:42;;;;;;;8.57;7.77;;;21.00;81.50;;;;;;5051230;28;20489;-81
2021/06/02 07:57:08;;;;;;;7.63;7.03;;;21.10;80.50;;;;;;5052149;28;20880;-81
2021/06/02 07:59:34;;;;;;;9.63;7.30;;;21.20;82.50;;;;;;5051518;28;20459;-81
2021/06/02 08:02:02;;;;;;;14.17;12.77;;;21.40;81.50;;;;;;5052164;28;20404;-82
2021/06/02 08:04:30;;;;;;;14.77;13.27;;;21.50;81.30;;;;;;5051652;28;20580;-82
2021/06/02 08:06:56;;;;;;;12.67;11.20;;;21.70;81.80;;;;;;5051969;28;20411;-82
2021/06/02 08:09:22;;;;;;;14.80;13.50;;;21.90;81.00;;;;;;5051870;28;20469;-81
2021/06/02 08:11:48;;;;;;;13.03;11.97;;;22.10;79.90;;;;;;5051500;28;20913;-81
2021/06/02 08:14:15;;;;;;;12.53;7.43;;;22.20;78.80;;;;;;5055620;28;20626;-81
2021/06/02 08:16:42;;;;;;;12.30;11.23;;;22.40;78.40;;;;;;5054986;28;20857;-81
2021/06/02 08:19:08;;;;;;;9.93;9.23;;;22.60;77.60;;;;;;5055314;28;20455;-81
2021/06/02 08:21:34;;;;;;;11.10;8.30;;;22.70;76.90;;;;;;5054911;28;20420;-81
2021/06/02 08:24:00;;;;;;;10.30;9.60;;;22.80;73.50;;;;;;5055316;28;20807;-81
2021/06/02 08:26:26;;;;;;;10.27;9.67;;;23.00;76.20;;;;;;5054882;28;20527;-81
2021/06/02 08:28:56;;;;;;;8.40;7.27;;;23.20;79.90;;;;;;5055245;28;20412;-82
2021/06/02 08:31:22;;;;;;;11.00;10.10;;;23.30;77.70;;;;;;5054980;28;20549;-81
2021/06/02 08:33:48;;;;;;;8.03;7.43;;;23.50;74.10;;;;;;5054415;28;20419;-81
2021/06/02 08:36:13;;;;;;;8.00;7.37;;;23.60;71.70;;;;;;5055197;28;20408;-81
2021/06/02 08:38:39;;;;;;;7.03;6.33;;;23.60;70.00;;;;;;5054503;28;20197;-82
2021/06/02 08:41:08;;;;;;;9.30;6.60;;;23.80;72.80;;;;;;5055060;28;20174;-81
2021/06/02 08:43:35;;;;;;;7.63;6.93;;;23.90;73.50;;;;;;5054655;28;20206;-81
2021/06/02 08:46:01;;;;;;;7.30;6.70;;;24.10;72.70;;;;;;5055057;28;20404;-80
2021/06/02 08:48:27;;;;;;;138.43;121.43;;;24.30;70.00;;;;;;5054532;28;20408;-80
2021/06/02 08:50:54;;;;;;;25.47;22.87;;;24.40;68.70;;;;;;5054904;28;20920;-82
2021/06/02 08:53:20;;;;;;;12.17;8.63;;;24.60;69.30;;;;;;5054957;28;20404;-81
2021/06/02 08:55:47;;;;;;;9.70;8.80;;;24.70;68.50;;;;;;5053849;28;20419;-79
2021/06/02 08:58:22;;;;;;;8.37;7.77;;;24.80;67.80;;;;;;5054712;28;20452;-79
2021/06/02 09:00:50;;;;;;;7.23;6.73;;;24.90;66.00;;;;;;5036632;28;20408;-79
2021/06/02 09:03:17;;;;;;;9.93;9.30;;;24.90;65.60;;;;;;5054663;28;20896;-78
2021/06/02 09:05:43;;;;;;;10.30;9.30;;;25.00;64.60;;;;;;5053409;28;20759;-79
2021/06/02 09:08:12;;;;;;;7.70;6.97;;;25.10;63.30;;;;;;5054674;28;20404;-79
2021/06/02 09:10:41;;;;;;;8.97;8.17;;;25.30;64.80;;;;;;5054014;28;20170;-80
2021/06/02 09:13:24;;;;;;;11.90;10.80;;;25.30;63.20;;;;;;5054090;28;20908;-79
2021/06/02 09:15:52;;;;;;;11.60;10.50;;;25.10;61.30;;;;;;5035630;28;20957;-78
2021/06/02 09:18:22;;;;;;;10.53;9.53;;;24.90;61.10;;;;;;5054394;28;20444;-79
2021/06/02 09:20:52;;;;;;;8.57;7.83;;;24.90;61.30;;;;;;5053679;28;20400;-80
2021/06/02 09:23:40;;;;;;;10.20;7.77;;;24.90;60.30;;;;;;5049482;28;20429;-79
2021/06/02 09:26:19;;;;;;;49.77;43.30;;;24.80;59.30;;;;;;5034571;28;20401;-84
2021/06/02 09:28:57;;;;;;;40.80;35.63;;;24.70;61.20;;;;;;5016057;28;20434;-85
2021/06/02 09:31:43;;;;;;;8.60;7.97;;;25.00;65.70;;;;;;5035211;28;20417;-87
2021/06/02 09:34:18;;;;;;;10.63;5.70;;;25.30;64.60;;;;;;5037399;28;20429;-83
2021/06/02 09:36:49;;;;;;;7.10;6.60;;;25.60;64.00;;;;;;5053351;28;20432;-79
2021/06/02 09:39:17;;;;;;;6.47;5.97;;;25.80;59.70;;;;;;5030122;28;20452;-81
2021/06/02 09:41:53;;;;;;;6.50;6.10;;;26.00;59.10;;;;;;5041875;28;20884;-82
2021/06/02 09:44:21;;;;;;;9.20;8.70;;;26.20;57.60;;;;;;5053289;28;20935;-75
2021/06/02 09:47:05;;;;;;;6.90;6.37;;;26.40;59.60;;;;;;5052660;28;20412;-77
2021/06/02 09:49:44;;;;;;;6.77;6.37;;;26.60;57.40;;;;;;5053265;28;20499;-80
2021/06/02 09:52:10;;;;;;;7.03;6.53;;;26.80;55.90;;;;;;5053805;28;20491;-77
2021/06/02 09:54:36;;;;;;;6.20;5.80;;;27.00;57.80;;;;;;5052996;28;20455;-78
2021/06/02 09:57:13;;;;;;;6.43;6.00;;;27.20;58.50;;;;;;5053863;28;20185;-77
2021/06/02 10:00:00;;;;;;;7.93;6.73;;;27.40;57.90;;;;;;5035185;28;20200;-77
2021/06/02 10:02:26;;;;;;;5.93;5.43;;;27.50;56.50;;;;;;5053218;28;20530;-77
2021/06/02 10:05:11;;;;;;;5.90;5.60;;;27.60;56.90;;;;;;5052883;28;20416;-77
2021/06/02 10:07:45;;;;;;;7.23;6.73;;;27.80;60.00;;;;;;5052844;28;20170;-77
2021/06/02 10:10:17;;;;;;;7.70;6.20;;;28.00;56.60;;;;;;5053396;28;20417;-77
2021/06/02 10:12:58;;;;;;;6.33;5.87;;;28.00;56.50;;;;;;5052715;28;20777;-78
2021/06/02 10:15:27;;;;;;;6.10;5.70;;;28.20;54.00;;;;;;5053059;28;20393;-77
2021/06/02 10:17:53;;;;;;;7.47;7.00;;;28.20;53.10;;;;;;5052454;28;20572;-77
2021/06/02 10:20:20;;;;;;;6.40;5.90;;;28.40;56.50;;;;;;5053321;28;20851;-77
2021/06/02 10:22:55;;;;;;;6.57;6.07;;;28.50;55.20;;;;;;5052490;28;20428;-77
2021/06/02 10:25:23;;;;;;;5.47;5.07;;;28.60;53.70;;;;;;5052718;28;20745;-77
2021/06/02 10:27:52;;;;;;;8.20;7.80;;;28.70;52.60;;;;;;5051840;28;20408;-77
2021/06/02 10:30:18;;;;;;;5.80;5.50;;;28.70;53.30;;;;;;5052394;28;20499;-77
2021/06/02 10:32:44;;;;;;;7.00;6.50;;;28.70;53.40;;;;;;5051204;28;20485;-78
2021/06/02 10:35:10;;;;;;;6.93;6.33;;;28.80;56.40;;;;;;5052834;28;20420;-77
2021/06/02 10:37:41;;;;;;;6.63;6.00;;;28.90;53.40;;;;;;5052111;28;20181;-78
2021/06/02 10:40:11;;;;;;;5.73;5.33;;;29.00;54.60;;;;;;5052931;28;20766;-80
2021/06/02 10:42:57;;;;;;;5.37;5.07;;;29.10;53.20;;;;;;5052150;28;20495;-78
2021/06/02 10:45:33;;;;;;;5.23;5.03;;;29.00;47.00;;;;;;5052908;28;20916;-77
2021/06/02 10:48:01;;;;;;;5.50;5.30;;;29.00;45.80;;;;;;5052707;28;20400;-77
2021/06/02 10:50:36;;;;;;;4.87;4.67;;;29.00;44.50;;;;;;5052861;28;20453;-77
2021/06/02 10:53:23;;;;;;;5.40;5.10;;;28.90;44.70;;;;;;5052713;28;20415;-78
2021/06/02 10:55:56;;;;;;;4.93;4.63;;;28.90;44.70;;;;;;5052046;28;20419;-78
2021/06/02 10:58:45;;;;;;;6.00;5.70;;;29.00;43.90;;;;;;5052538;28;20463;-78
2021/06/02 11:01:17;;;;;;;5.10;4.90;;;29.00;47.40;;;;;;5039218;28;20420;-77
2021/06/02 11:04:04;;;;;;;4.90;4.70;;;29.10;45.70;;;;;;5051953;28;20491;-78
2021/06/02 11:06:33;;;;;;;4.70;4.50;;;29.10;44.20;;;;;;5051431;28;20912;-77
2021/06/02 11:09:04;;;;;;;6.53;6.13;;;29.10;44.20;;;;;;5051941;28;20424;-79
2021/06/02 11:11:38;;;;;;;5.20;4.90;;;29.20;45.50;;;;;;5033028;28;20443;-82
2021/06/02 11:14:16;;;;;;;5.30;5.00;;;29.20;44.20;;;;;;5051472;28;20431;-78
2021/06/02 11:16:43;;;;;;;5.10;4.80;;;29.20;44.60;;;;;;5040285;28;20471;-78
2021/06/02 11:19:19;;;;;;;4.70;4.50;;;29.30;44.60;;;;;;5048993;28;20463;-81
2021/06/02 11:21:54;;;;;;;6.93;6.63;;;29.30;46.30;;;;;;5048619;28;20416;-79
2021/06/02 11:24:35;;;;;;;5.57;5.27;;;29.30;45.60;;;;;;5050454;28;20422;-79
2021/06/02 11:27:17;;;;;;;5.90;5.60;;;29.30;44.80;;;;;;5027227;28;20952;-81
2021/06/02 11:29:51;;;;;;;5.63;5.27;;;29.40;47.30;;;;;;5044313;28;20435;-76
2021/06/02 11:32:24;;;;;;;8.70;8.10;;;29.50;48.40;;;;;;5044786;28;20432;-75
2021/06/02 11:35:04;;;;;;;5.93;5.63;;;29.50;44.30;;;;;;5049824;28;20417;-75
2021/06/02 11:37:32;;;;;;;5.87;5.57;;;29.50;45.80;;;;;;5044155;28;20834;-75
2021/06/02 11:40:05;;;;;;;5.43;5.03;;;29.60;45.90;;;;;;5031207;28;20594;-78
2021/06/02 11:42:44;;;;;;;6.73;6.30;;;29.50;43.50;;;;;;5050468;28;20417;-75
2021/06/02 11:45:12;;;;;;;5.77;5.37;;;29.40;43.70;;;;;;5042535;28;20404;-75
2021/06/02 11:47:46;;;;;;;5.30;5.00;;;29.50;46.40;;;;;;5041729;28;20428;-79
2021/06/02 11:50:18;;;;;;;5.80;5.50;;;29.60;45.40;;;;;;5026732;28;20730;-75
2021/06/02 11:52:52;;;;;;;6.20;5.80;;;29.50;42.70;;;;;;5054354;28;20450;-77
2021/06/02 11:55:19;;;;;;;6.03;5.73;;;29.40;43.80;;;;;;5053205;28;20495;-75
2021/06/02 11:57:46;;;;;;;6.00;5.70;;;29.40;43.90;;;;;;5046358;28;20432;-76
2021/06/02 12:00:24;;;;;;;5.40;5.20;;;29.40;45.00;;;;;;5046039;28;20938;-75
2021/06/02 12:02:58;;;;;;;5.40;5.10;;;29.40;43.80;;;;;;5043440;28;20421;-76
2021/06/02 12:05:32;;;;;;;5.73;5.40;;;29.40;45.90;;;;;;5044183;28;20791;-75
2021/06/02 12:08:02;;;;;;;6.80;6.40;;;29.20;44.00;;;;;;5041492;28;20444;-75
2021/06/02 12:10:39;;;;;;;5.70;5.30;;;29.20;46.20;;;;;;5030187;28;20502;-76
2021/06/02 12:13:07;;;;;;;5.27;4.97;;;29.30;47.00;;;;;;5060341;28;20492;-75
2021/06/02 12:15:53;;;;;;;4.80;4.57;;;29.30;44.90;;;;;;5047049;28;20417;-75
2021/06/02 12:18:33;;;;;;;5.43;5.03;;;29.30;44.70;;;;;;5046994;28;20492;-75
2021/06/02 12:21:15;;;;;;;5.80;5.40;;;29.30;45.00;;;;;;5042673;28;21038;-78
2021/06/02 12:23:54;;;;;;;6.43;5.97;;;29.40;43.00;;;;;;5047680;28;20432;-87
2021/06/02 12:26:30;;;;;;;5.90;5.50;;;29.20;41.90;;;;;;5048978;28;20510;-82
2021/06/02 12:28:57;;;;;;;5.80;5.40;;;29.20;42.70;;;;;;5051308;28;20860;-81
2021/06/02 12:31:45;;;;;;;4.93;4.63;;;29.20;43.50;;;;;;5042730;28;20429;-80
2021/06/02 12:34:24;;;;;;;5.70;5.40;;;29.30;43.80;;;;;;5049922;28;20932;-80
2021/06/02 12:36:53;;;;;;;5.80;5.50;;;29.30;43.40;;;;;;5043179;28;20433;-81
2021/06/02 12:39:32;;;;;;;5.63;5.13;;;29.30;42.90;;;;;;5050227;28;20535;-80
2021/06/02 12:42:03;;;;;;;6.70;5.17;;;29.10;43.40;;;;;;5051250;28;20501;-82
2021/06/02 12:44:31;;;;;;;6.07;5.57;;;29.00;42.80;;;;;;5041200;28;20820;-80
2021/06/02 12:47:05;;;;;;;4.37;4.17;;;29.00;45.10;;;;;;5046744;28;20436;-81
2021/06/02 12:49:32;;;;;;;8.77;8.17;;;29.00;44.80;;;;;;5035203;28;20427;-80
2021/06/02 12:51:59;;;;;;;6.27;5.70;;;29.00;44.50;;;;;;5052830;28;20456;-79
2021/06/02 12:54:31;;;;;;;5.10;4.90;;;29.00;45.80;;;;;;5049229;28;20815;-79
2021/06/02 12:56:58;;;;;;;5.63;5.13;;;29.10;41.90;;;;;;5050773;28;20427;-81
2021/06/02 12:59:32;;;;;;;5.83;5.53;;;29.20;44.30;;;;;;5040867;28;20494;-81
2021/06/02 13:02:00;;;;;;;4.53;4.33;;;29.30;43.70;;;;;;5030480;28;20444;-80
2021/06/02 13:04:27;;;;;;;5.77;5.17;;;29.20;45.50;;;;;;5052958;28;20416;-77
2021/06/02 13:06:54;;;;;;;64.17;57.23;;;29.20;43.50;;;;;;5051825;28;20420;-77
2021/06/02 13:09:22;;;;;;;12.97;11.80;;;29.00;43.50;;;;;;5052897;28;20428;-76
2021/06/02 13:11:49;;;;;;;4.80;4.47;;;29.00;43.40;;;;;;5052180;28;20462;-79
2021/06/02 13:14:15;;;;;;;4.63;4.23;;;28.90;41.20;;;;;;5045416;28;20450;-79
2021/06/02 13:16:49;;;;;;;4.60;4.40;;;28.90;42.00;;;;;;5043428;28;20463;-83
2021/06/02 13:19:15;;;;;;;3.80;3.67;;;28.80;42.10;;;;;;5050333;28;20548;-84
2021/06/02 13:21:54;;;;;;;4.13;3.93;;;28.60;39.40;;;;;;5035423;28;20495;-80
2021/06/02 13:24:23;;;;;;;4.10;3.90;;;28.60;41.40;;;;;;5050632;28;20189;-76
2021/06/02 13:26:59;;;;;;;4.30;4.10;;;28.60;43.40;;;;;;5046830;28;20424;-75
2021/06/02 13:29:25;;;;;;;4.27;4.07;;;28.70;42.60;;;;;;5030211;28;20511;-76
2021/06/02 13:31:53;;;;;;;4.27;4.00;;;28.70;42.80;;;;;;5049521;28;20985;-76